Pagina principale
METAR-TAF:

METAR-TAF

Aeroporti :

Vineyard Haven, Massachusetts, Stati Uniti

latitudine: 41-23-32N, longitudine: 070-37-00W, altezza: 20 m

Osservazione

Il bollettino è stato emesso 48 minuti fa, alle 06:53 UTC
Vento 6 kt da nord
Temperature 14°C
Umidità 94%
Pressione 1015 hPa
Visibilità: 16.1 km
Cielo sereno

METAR: KMVY 240653Z AUTO 36006KT 10SM CLR 14/13 A2996 RMK AO2 SLP146 T01390128

Ora: 03:41 (07:41 UTC)


TAF: mancante

Osservazioni e previsioni meteorologiche di più di 4000 aeroporti (messaggi METAR e TAF).

Le stazioni disponibili sono rappresentate dai dischi gialli e rossi sulla carta.

Puntare il mouse per vedere il nome della stazione.

Clicca sopra per visualizzare le osservazioni e previsioni meteorologiche.

Per cambiare la mappa : fare clic sui pulsanti verdi con una croce nera per ingrandire, il pulsante verde con un trattino per diminuire, o sulla freccia verde per le mappe adiacenti.


METAR-TAF: